createdAt,value
2022-12-13T00:02:46.532Z,19.55
2022-12-13T00:07:51.536Z,20.38
2022-12-13T00:12:55.112Z,21.33
2022-12-13T00:17:58.615Z,19.42
2022-12-13T00:23:03.497Z,19.63
2022-12-13T00:28:06.980Z,20.10
2022-12-13T00:33:11.413Z,20.60
2022-12-13T00:38:16.278Z,20.00
2022-12-13T00:43:19.762Z,18.90
2022-12-13T00:48:23.935Z,19.10
2022-12-13T00:53:28.792Z,19.90
2022-12-13T00:58:32.440Z,19.23
2022-12-13T01:03:36.419Z,20.85
2022-12-13T01:08:41.359Z,18.77
2022-12-13T01:13:45.105Z,18.95
2022-12-13T01:18:48.711Z,19.02
2022-12-13T01:23:53.739Z,17.95
2022-12-13T01:28:57.249Z,18.02
2022-12-13T01:34:00.753Z,17.35
2022-12-13T01:39:14.342Z,17.58
2022-12-13T01:45:08.066Z,17.90
2022-12-13T01:50:14.765Z,18.50
2022-12-13T01:55:21.365Z,17.08
2022-12-13T02:00:26.049Z,18.15
2022-12-13T02:05:34.891Z,17.17
2022-12-13T02:10:40.376Z,17.00
2022-12-13T02:15:52.632Z,16.45
2022-12-13T02:21:17.232Z,17.58
2022-12-13T02:26:54.004Z,17.77
2022-12-13T02:32:05.865Z,17.77
2022-12-13T02:37:19.670Z,18.40
2022-12-13T02:42:28.903Z,17.30
2022-12-13T02:47:35.094Z,17.35
2022-12-13T02:52:40.577Z,18.10
2022-12-13T02:57:48.091Z,17.05
2022-12-13T03:03:08.376Z,19.20
2022-12-13T03:08:22.093Z,16.65
2022-12-13T03:13:39.989Z,17.42
2022-12-13T03:18:46.579Z,15.82
2022-12-13T03:23:53.883Z,16.77
2022-12-13T03:28:57.447Z,18.30
2022-12-13T03:34:03.230Z,15.90
2022-12-13T03:39:06.895Z,19.38
2022-12-13T03:44:10.571Z,16.65
2022-12-13T03:49:17.640Z,17.05
2022-12-13T03:54:21.307Z,17.75
2022-12-13T03:59:24.858Z,16.42
2022-12-13T04:04:29.781Z,17.27
2022-12-13T04:09:33.357Z,18.67
2022-12-13T04:14:36.962Z,17.00
2022-12-13T04:19:41.856Z,17.33
2022-12-13T04:24:45.463Z,17.67
2022-12-13T04:29:48.984Z,17.77
2022-12-13T04:35:01.545Z,16.10
2022-12-13T04:40:06.417Z,17.08
2022-12-13T04:45:16.215Z,18.05
2022-12-13T04:50:21.351Z,12.50
2022-12-13T04:55:24.941Z,17.05
2022-12-13T05:00:28.735Z,17.52
2022-12-13T05:05:33.682Z,16.17
2022-12-13T05:10:38.143Z,17.58
2022-12-13T05:15:41.791Z,18.23
2022-12-13T05:20:46.732Z,19.02
2022-12-13T05:25:50.281Z,17.98
2022-12-13T05:30:54.306Z,15.95
2022-12-13T05:36:02.043Z,18.08
2022-12-13T05:41:06.246Z,17.60
2022-12-13T05:46:09.840Z,15.88
2022-12-13T05:51:14.927Z,17.20
2022-12-13T05:56:22.828Z,17.80
2022-12-13T06:01:27.185Z,16.83
2022-12-13T06:06:32.105Z,19.58
2022-12-13T06:11:35.701Z,17.77
2022-12-13T06:16:47.144Z,17.83
2022-12-13T06:21:54.592Z,17.40
2022-12-13T06:27:00.257Z,18.25
2022-12-13T06:32:04.860Z,17.85
2022-12-13T06:37:13.499Z,17.95
2022-12-13T06:42:21.815Z,19.33
2022-12-13T06:47:31.700Z,19.73
2022-12-13T06:52:37.864Z,18.70
2022-12-13T06:57:41.586Z,19.73
2022-12-13T07:02:45.411Z,19.60
2022-12-13T07:07:50.620Z,20.15
2022-12-13T07:12:54.200Z,19.85
2022-12-13T07:17:57.687Z,19.58
2022-12-13T07:23:02.567Z,19.25
2022-12-13T07:28:08.515Z,22.40
2022-12-13T07:33:12.240Z,18.33
2022-12-13T07:38:17.480Z,20.42
2022-12-13T07:43:22.044Z,18.73
2022-12-13T07:48:27.366Z,19.13
2022-12-13T07:53:33.457Z,20.67
2022-12-13T07:58:38.202Z,19.92
2022-12-13T08:03:42.048Z,20.85
2022-12-13T08:08:51.105Z,22.02
2022-12-13T08:13:55.252Z,23.85
2022-12-13T08:19:02.795Z,21.65
2022-12-13T08:24:15.405Z,21.05
2022-12-13T08:29:22.870Z,20.48
2022-12-13T08:34:38.040Z,21.55
2022-12-13T08:39:42.964Z,21.17
2022-12-13T08:44:49.726Z,20.67
2022-12-13T08:49:54.755Z,22.25
2022-12-13T08:54:59.894Z,21.80
2022-12-13T09:00:05.280Z,22.60
2022-12-13T09:05:11.162Z,24.00
2022-12-13T09:10:26.882Z,25.95
2022-12-13T09:20:40.740Z,29.17
2022-12-13T09:25:52.815Z,24.58
2022-12-13T09:30:57.519Z,22.83
2022-12-13T09:36:06.102Z,22.38
2022-12-13T09:41:20.401Z,24.33
2022-12-13T09:46:44.796Z,22.15
2022-12-13T09:52:10.292Z,23.25
2022-12-13T09:57:32.796Z,24.65
2022-12-13T10:02:44.360Z,23.15
2022-12-13T10:07:48.228Z,25.13
2022-12-13T10:12:59.422Z,23.95
2022-12-13T10:18:05.534Z,28.20
2022-12-13T10:23:33.294Z,25.17
2022-12-13T10:28:35.166Z,27.48
2022-12-13T10:33:53.232Z,23.77
2022-12-13T10:39:00.195Z,26.17
2022-12-13T10:44:21.653Z,27.38
2022-12-13T10:49:30.559Z,26.55
2022-12-13T10:54:38.940Z,24.80
2022-12-13T10:59:53.961Z,28.88
2022-12-13T11:04:58.943Z,27.10
2022-12-13T11:10:23.676Z,28.67
2022-12-13T11:15:35.873Z,27.52
2022-12-13T11:20:52.696Z,26.25
2022-12-13T11:26:00.883Z,25.52
2022-12-13T11:31:16.268Z,24.08
2022-12-13T11:36:30.965Z,24.67
2022-12-13T11:41:40.316Z,23.50
2022-12-13T11:46:49.583Z,25.10
2022-12-13T11:51:58.463Z,24.88
2022-12-13T11:57:08.038Z,25.00
2022-12-13T12:02:20.946Z,25.83
2022-12-13T12:07:33.845Z,26.05
2022-12-13T12:12:39.541Z,26.13
2022-12-13T12:17:45.621Z,25.98
2022-12-13T12:23:00.484Z,27.40
2022-12-13T12:28:15.269Z,23.90
2022-12-13T12:33:30.068Z,23.92
2022-12-13T12:39:26.580Z,24.77
2022-12-13T12:44:40.528Z,25.40
2022-12-13T12:50:10.717Z,23.95
2022-12-13T13:00:32.046Z,25.15
2022-12-13T13:05:41.377Z,26.58
2022-12-13T13:10:50.135Z,24.17
2022-12-13T13:15:56.481Z,24.45
2022-12-13T13:21:30.081Z,25.05
2022-12-13T13:26:38.881Z,27.95
2022-12-13T13:32:01.579Z,24.67
2022-12-13T13:37:26.751Z,22.98
2022-12-13T13:42:32.762Z,23.33
2022-12-13T13:47:40.108Z,23.98
2022-12-13T13:52:58.791Z,22.20
2022-12-13T13:58:34.529Z,21.58
2022-12-13T14:04:10.278Z,23.00
2022-12-13T14:09:59.360Z,23.55
2022-12-13T14:15:41.593Z,21.48
2022-12-13T14:21:10.485Z,23.45
2022-12-13T14:31:26.786Z,22.33
2022-12-13T14:36:35.406Z,22.10
2022-12-13T14:41:46.913Z,24.50
2022-12-13T14:46:54.813Z,23.40
2022-12-13T14:52:02.946Z,22.90
2022-12-13T14:57:06.476Z,22.70
2022-12-13T15:02:18.912Z,22.85
2022-12-13T15:07:38.641Z,24.10
2022-12-13T15:12:43.780Z,22.73
2022-12-13T15:17:48.974Z,22.88
2022-12-13T15:23:02.505Z,24.63
2022-12-13T15:28:21.201Z,23.05
2022-12-13T15:33:33.519Z,22.92
2022-12-13T15:38:49.454Z,25.42
2022-12-13T15:43:56.273Z,21.95
2022-12-13T15:49:03.396Z,23.20
2022-12-13T15:54:19.353Z,25.50
2022-12-13T16:04:34.632Z,24.60
2022-12-13T16:09:39.939Z,24.67
2022-12-13T16:14:49.183Z,22.42
2022-12-13T16:19:56.523Z,25.70
2022-12-13T16:25:00.736Z,23.77
2022-12-13T16:30:15.210Z,33.50
2022-12-13T16:35:21.535Z,22.90
2022-12-13T16:40:32.032Z,25.02
2022-12-13T16:45:41.946Z,34.35
2022-12-13T16:50:48.686Z,24.88
2022-12-13T16:56:02.267Z,25.38
2022-12-13T17:01:10.164Z,24.67
2022-12-13T17:06:20.633Z,22.70
2022-12-13T17:11:24.518Z,17.67
2022-12-13T17:16:28.204Z,21.02
2022-12-13T17:21:33.359Z,24.42
2022-12-13T17:26:37.751Z,22.05
2022-12-13T17:31:41.501Z,22.67
2022-12-13T17:36:46.551Z,22.42
2022-12-13T17:41:54.401Z,23.33
2022-12-13T17:46:59.339Z,24.10
2022-12-13T17:52:04.399Z,22.45
2022-12-13T17:57:10.628Z,24.17
2022-12-13T18:02:14.742Z,24.13
2022-12-13T18:07:20.479Z,23.98
2022-12-13T18:12:24.195Z,23.73
2022-12-13T18:17:46.633Z,22.67
2022-12-13T18:22:53.034Z,23.17
2022-12-13T18:28:00.831Z,23.88
2022-12-13T18:33:05.556Z,26.45
2022-12-13T18:38:10.879Z,22.90
2022-12-13T18:43:14.773Z,24.52
2022-12-13T18:48:18.468Z,23.30
2022-12-13T18:53:23.954Z,21.75
2022-12-13T18:58:27.787Z,24.10
2022-12-13T19:03:32.102Z,23.98
2022-12-13T19:08:37.474Z,24.55
2022-12-13T19:13:41.271Z,23.85
2022-12-13T19:18:45.286Z,23.05
2022-12-13T19:23:56.767Z,22.95
2022-12-13T19:29:01.149Z,24.48
2022-12-13T19:34:05.061Z,24.27
2022-12-13T19:39:12.501Z,24.20
2022-12-13T19:44:16.335Z,23.98
2022-12-13T19:49:22.094Z,23.42
2022-12-13T19:54:28.457Z,24.52
2022-12-13T19:59:32.294Z,21.52
2022-12-13T20:04:36.274Z,23.15
2022-12-13T20:09:42.232Z,23.98
2022-12-13T20:14:45.809Z,25.35
2022-12-13T20:19:49.718Z,26.77
2022-12-13T20:24:54.932Z,23.85
2022-12-13T20:29:58.707Z,23.23
2022-12-13T20:35:02.918Z,24.05
2022-12-13T20:40:09.048Z,24.00
2022-12-13T20:45:13.798Z,22.02
2022-12-13T20:50:21.701Z,24.20
2022-12-13T20:55:26.829Z,22.00
2022-12-13T21:00:31.214Z,21.80
2022-12-13T21:05:34.747Z,23.85
2022-12-13T21:10:41.455Z,22.35
2022-12-13T21:15:46.040Z,22.60
2022-12-13T21:20:50.195Z,20.52
2022-12-13T21:25:55.631Z,19.25
2022-12-13T21:31:00.545Z,20.23
2022-12-13T21:36:12.494Z,19.83
2022-12-13T21:41:17.372Z,20.15
2022-12-13T21:46:22.537Z,19.30
2022-12-13T21:51:30.745Z,19.08
2022-12-13T21:56:53.448Z,20.27
2022-12-13T22:02:16.303Z,18.17
2022-12-13T22:07:22.644Z,18.90
2022-12-13T22:12:34.495Z,19.10
2022-12-13T22:17:38.786Z,19.45
2022-12-13T22:22:44.360Z,18.83
2022-12-13T22:27:49.957Z,19.63
2022-12-13T22:32:54.085Z,18.83
2022-12-13T22:38:01.559Z,18.55
2022-12-13T22:43:06.716Z,18.25
2022-12-13T22:48:10.585Z,17.38
2022-12-13T22:53:14.439Z,17.85
2022-12-13T22:58:19.344Z,18.33
2022-12-13T23:03:22.816Z,17.58
2022-12-13T23:08:26.657Z,17.50
2022-12-13T23:13:31.786Z,17.15
2022-12-13T23:18:35.311Z,16.05
2022-12-13T23:23:38.814Z,17.50
2022-12-13T23:28:46.171Z,16.98
2022-12-13T23:33:49.735Z,16.85
2022-12-13T23:38:53.545Z,16.75
2022-12-13T23:44:00.017Z,15.60
2022-12-13T23:49:05.772Z,16.05
2022-12-13T23:54:11.830Z,14.10
2022-12-13T23:59:16.825Z,14.52
